createdAt,value
2019-03-04T00:04:21.103Z,1.32
2019-03-04T00:09:30.143Z,0.98
2019-03-04T00:14:39.354Z,1.19
2019-03-04T00:19:49.189Z,0.95
2019-03-04T00:24:58.362Z,0.82
2019-03-04T00:30:08.463Z,0.88
2019-03-04T00:35:07.554Z,0.88
2019-03-04T00:40:16.746Z,0.91
2019-03-04T00:45:26.154Z,0.98
2019-03-04T00:50:35.205Z,1.09
2019-03-04T00:55:44.306Z,0.88
2019-03-04T01:00:53.503Z,0.80
2019-03-04T01:06:03.466Z,0.80
2019-03-04T01:11:11.211Z,0.88
2019-03-04T01:16:20.350Z,0.92
2019-03-04T01:21:29.400Z,0.97
2019-03-04T01:26:38.506Z,1.06
2019-03-04T01:31:47.615Z,0.85
2019-03-04T01:36:56.763Z,1.10
2019-03-04T01:42:05.921Z,0.95
2019-03-04T01:47:15.141Z,0.93
2019-03-04T01:52:24.214Z,1.17
2019-03-04T01:57:33.357Z,0.85
2019-03-04T02:02:42.475Z,0.95
2019-03-04T02:07:51.578Z,0.72
2019-03-04T02:13:00.642Z,1.03
2019-03-04T02:18:09.990Z,0.86
2019-03-04T02:23:19.209Z,0.80
2019-03-04T02:28:28.363Z,0.83
2019-03-04T02:33:37.446Z,0.99
2019-03-04T02:38:46.780Z,1.26
2019-03-04T02:43:55.863Z,1.00
2019-03-04T02:49:05.030Z,1.00
2019-03-04T02:54:14.108Z,0.99
2019-03-04T02:59:23.550Z,1.05
2019-03-04T03:04:32.608Z,1.29
2019-03-04T03:09:41.776Z,1.18
2019-03-04T03:14:50.830Z,1.16
2019-03-04T03:20:00.037Z,1.19
2019-03-04T03:25:09.097Z,1.24
2019-03-04T03:30:18.276Z,1.25
2019-03-04T03:35:27.367Z,1.06
2019-03-04T03:40:36.495Z,0.89
2019-03-04T03:45:45.714Z,1.05
2019-03-04T03:50:54.784Z,1.01
2019-03-04T03:56:03.873Z,0.88
2019-03-04T04:01:13.156Z,0.96
2019-03-04T04:06:22.217Z,1.03
2019-03-04T04:11:31.347Z,0.57
2019-03-04T04:16:40.443Z,0.96
2019-03-04T04:21:50.548Z,1.04
2019-03-04T04:26:49.544Z,1.02
2019-03-04T04:31:59.012Z,0.85
2019-03-04T04:37:08.113Z,1.32
2019-03-04T04:42:17.270Z,1.13
2019-03-04T04:47:26.303Z,1.18
2019-03-04T04:52:35.454Z,1.06
2019-03-04T04:57:44.513Z,1.33
2019-03-04T05:02:53.639Z,1.06
2019-03-04T05:08:02.749Z,1.05
2019-03-04T05:13:11.942Z,0.96
2019-03-04T05:18:21.032Z,1.17
2019-03-04T05:23:30.139Z,1.13
2019-03-04T05:28:39.183Z,1.20
2019-03-04T05:33:48.415Z,1.04
2019-03-04T05:38:57.455Z,1.51
2019-03-04T05:44:06.590Z,1.14
2019-03-04T05:49:15.810Z,1.00
2019-03-04T05:54:25.111Z,0.97
2019-03-04T05:59:34.199Z,1.35
2019-03-04T06:04:43.366Z,1.16
2019-03-04T06:09:52.423Z,1.19
2019-03-04T06:15:01.538Z,0.76
2019-03-04T06:20:10.598Z,0.94
2019-03-04T06:25:19.785Z,1.13
2019-03-04T06:30:28.814Z,0.82
2019-03-04T06:35:37.995Z,1.10
2019-03-04T06:40:47.204Z,0.69
2019-03-04T06:45:56.331Z,0.82
2019-03-04T06:51:05.398Z,0.90
2019-03-04T06:56:14.514Z,0.51
2019-03-04T07:01:23.702Z,0.67
2019-03-04T07:06:32.950Z,1.03
2019-03-04T07:11:42.331Z,0.90
2019-03-04T07:16:51.455Z,1.06
2019-03-04T07:22:00.622Z,0.94
2019-03-04T07:27:09.775Z,1.09
2019-03-04T07:32:18.819Z,0.71
2019-03-04T07:37:27.950Z,0.78
2019-03-04T07:42:36.998Z,0.68
2019-03-04T07:47:46.181Z,1.19
2019-03-04T07:52:55.203Z,0.72
2019-03-04T07:58:04.311Z,0.77
2019-03-04T08:03:13.371Z,0.72
2019-03-04T08:08:22.458Z,0.80
2019-03-04T08:13:31.665Z,1.24
2019-03-04T08:18:40.840Z,0.96
2019-03-04T08:23:50.333Z,0.65
2019-03-04T08:28:59.566Z,0.90
2019-03-04T08:34:09.354Z,0.80
2019-03-04T08:39:17.382Z,0.78
2019-03-04T08:44:26.451Z,0.69
2019-03-04T08:49:35.590Z,0.89
2019-03-04T08:54:44.690Z,1.12
2019-03-04T08:59:54.243Z,1.02
2019-03-04T09:05:03.258Z,0.59
2019-03-04T09:10:12.612Z,0.94
2019-03-04T09:15:21.675Z,0.87
2019-03-04T09:20:30.806Z,1.01
2019-03-04T09:25:39.886Z,0.86
2019-03-04T09:30:49.009Z,1.09
2019-03-04T09:35:58.054Z,1.09
2019-03-04T09:41:07.166Z,1.24
2019-03-04T09:46:16.357Z,1.02
2019-03-04T09:51:26.498Z,1.28
2019-03-04T09:56:25.500Z,1.03
2019-03-04T10:01:34.750Z,0.78
2019-03-04T10:06:43.798Z,1.15
2019-03-04T10:11:52.991Z,0.73
2019-03-04T10:17:02.098Z,0.63
2019-03-04T10:22:11.190Z,0.69
2019-03-04T10:27:20.221Z,0.74
2019-03-04T10:32:29.430Z,0.75
2019-03-04T10:37:38.523Z,0.91
2019-03-04T10:42:47.694Z,0.57
2019-03-04T10:47:57.380Z,0.59
2019-03-04T10:53:06.453Z,0.58
2019-03-04T10:58:15.682Z,0.59
2019-03-04T11:03:24.822Z,0.51
2019-03-04T11:08:33.928Z,0.79
2019-03-04T11:13:43.379Z,0.97
2019-03-04T11:18:52.458Z,0.69
2019-03-04T11:24:01.580Z,0.80
2019-03-04T11:29:10.623Z,0.81
2019-03-04T11:34:19.965Z,0.67
2019-03-04T11:39:29.047Z,0.63
2019-03-04T11:44:38.183Z,0.91
2019-03-04T11:49:47.237Z,0.74
2019-03-04T11:54:56.374Z,1.06
2019-03-04T12:00:05.492Z,0.69
2019-03-04T12:05:14.574Z,1.03
2019-03-04T12:10:23.642Z,1.14
2019-03-04T12:15:32.767Z,1.17
2019-03-04T12:25:47.238Z,1.13
2019-03-04T12:30:56.262Z,1.10
2019-03-04T12:36:06.199Z,0.85
2019-03-04T12:41:15.325Z,0.76
2019-03-04T12:46:24.479Z,0.99
2019-03-04T12:51:33.535Z,1.06
2019-03-04T12:56:42.674Z,1.32
2019-03-04T13:01:52.263Z,0.97
2019-03-04T13:07:01.379Z,1.15
2019-03-04T13:12:10.439Z,0.95
2019-03-04T13:17:20.102Z,1.24
2019-03-04T13:22:29.166Z,1.14
2019-03-04T13:27:38.434Z,1.50
2019-03-04T13:32:47.522Z,1.15
2019-03-04T13:37:56.643Z,1.35
2019-03-04T13:43:05.833Z,1.32
2019-03-04T13:48:14.946Z,0.96
2019-03-04T13:53:24.139Z,1.49
2019-03-04T13:58:33.453Z,1.74
2019-03-04T14:03:42.558Z,1.90
2019-03-04T14:08:51.661Z,1.51
2019-03-04T14:14:02.043Z,1.73
2019-03-04T14:19:09.414Z,1.85
2019-03-04T14:24:18.463Z,1.42
2019-03-04T14:29:27.598Z,1.74
2019-03-04T14:34:36.695Z,1.62
2019-03-04T14:39:46.018Z,1.62
2019-03-04T14:44:55.111Z,1.69
2019-03-04T14:50:09.836Z,1.63
2019-03-04T14:55:13.044Z,1.24
2019-03-04T15:00:22.351Z,1.50
2019-03-04T15:05:31.438Z,1.14
2019-03-04T15:10:40.722Z,1.66
2019-03-04T15:15:49.775Z,3.80
2019-03-04T15:20:58.907Z,1.95
2019-03-04T15:26:08.086Z,2.79
2019-03-04T15:31:17.231Z,3.88
2019-03-04T15:36:26.298Z,4.30
2019-03-04T15:41:40.111Z,2.74
2019-03-04T15:46:44.019Z,3.99
2019-03-04T15:51:53.236Z,2.19
2019-03-04T15:57:02.282Z,1.48
2019-03-04T16:02:11.458Z,1.45
2019-03-04T16:07:20.517Z,1.51
2019-03-04T16:12:29.658Z,1.36
2019-03-04T16:17:38.698Z,1.36
2019-03-04T16:22:47.853Z,2.08
2019-03-04T16:27:57.049Z,1.54
2019-03-04T16:33:06.258Z,1.55
2019-03-04T16:38:15.275Z,2.23
2019-03-04T16:43:24.513Z,1.25
2019-03-04T16:48:33.573Z,1.02
2019-03-04T16:53:42.702Z,1.36
2019-03-04T16:58:51.778Z,1.32
2019-03-04T17:04:00.907Z,1.13
2019-03-04T17:09:10.259Z,1.12
2019-03-04T17:14:19.373Z,1.45
2019-03-04T17:19:28.432Z,1.00
2019-03-04T17:24:37.574Z,1.37
2019-03-04T17:29:46.625Z,1.25
2019-03-04T17:34:55.709Z,1.46
2019-03-04T17:40:04.753Z,1.02
2019-03-04T17:45:13.940Z,3.13
2019-03-04T17:50:23.037Z,1.61
2019-03-04T17:55:32.157Z,3.24
2019-03-04T18:00:41.194Z,1.58
2019-03-04T18:05:50.304Z,1.67
2019-03-04T18:10:59.362Z,1.90
2019-03-04T18:16:08.559Z,1.66
2019-03-04T18:21:17.641Z,1.78
2019-03-04T18:26:26.792Z,1.35
2019-03-04T18:31:35.799Z,1.28
2019-03-04T18:36:45.000Z,2.29
2019-03-04T18:41:54.045Z,1.71
2019-03-04T18:47:03.173Z,1.80
2019-03-04T18:52:12.243Z,2.96
2019-03-04T18:57:21.640Z,2.03
2019-03-04T19:02:30.699Z,1.59
2019-03-04T19:07:39.862Z,1.37
2019-03-04T19:12:48.938Z,1.19
2019-03-04T19:17:58.125Z,2.22
2019-03-04T19:23:07.305Z,1.17
2019-03-04T19:28:16.680Z,1.23
2019-03-04T19:33:25.699Z,1.87
2019-03-04T19:38:34.840Z,1.68
2019-03-04T19:43:43.915Z,1.78
2019-03-04T19:48:53.087Z,1.37
2019-03-04T19:54:02.133Z,1.40
2019-03-04T19:59:11.259Z,1.36
2019-03-04T20:04:20.316Z,1.12
2019-03-04T20:09:29.497Z,1.42
2019-03-04T20:14:38.554Z,1.40
2019-03-04T20:19:47.733Z,1.33
2019-03-04T20:24:56.795Z,1.17
2019-03-04T20:30:05.959Z,1.17
2019-03-04T20:35:15.032Z,0.86
2019-03-04T20:40:24.158Z,0.98
2019-03-04T20:45:33.338Z,1.32
2019-03-04T20:50:42.546Z,0.98
2019-03-04T20:55:51.589Z,0.59
2019-03-04T21:01:00.714Z,0.83
2019-03-04T21:06:09.800Z,0.83
2019-03-04T21:11:18.941Z,0.68
2019-03-04T21:16:28.565Z,0.58
2019-03-04T21:21:37.679Z,0.61
2019-03-04T21:26:46.723Z,1.33
2019-03-04T21:31:55.842Z,0.63
2019-03-04T21:37:04.887Z,0.39
2019-03-04T21:42:14.049Z,0.36
2019-03-04T21:47:23.287Z,0.29
2019-03-04T21:52:32.707Z,0.38
2019-03-04T21:57:41.673Z,0.19
2019-03-04T22:02:50.841Z,0.43
2019-03-04T22:08:00.175Z,0.35
2019-03-04T22:13:09.311Z,0.39
2019-03-04T22:18:18.361Z,0.22
2019-03-04T22:23:27.649Z,0.35
2019-03-04T22:28:36.674Z,0.12
2019-03-04T22:33:46.370Z,0.09
2019-03-04T22:38:55.479Z,0.54
2019-03-04T22:44:04.669Z,0.07
2019-03-04T22:49:13.732Z,0.16
2019-03-04T22:54:22.849Z,0.09
2019-03-04T22:59:31.948Z,0.17
2019-03-04T23:04:41.126Z,0.19
2019-03-04T23:09:50.342Z,0.13
2019-03-04T23:14:59.634Z,0.29
2019-03-04T23:20:08.714Z,0.29
2019-03-04T23:25:17.846Z,0.21
2019-03-04T23:30:26.935Z,0.46
2019-03-04T23:35:36.051Z,0.49
2019-03-04T23:40:45.128Z,0.60
2019-03-04T23:45:54.318Z,0.79
2019-03-04T23:51:03.401Z,0.78
2019-03-04T23:56:12.593Z,0.88
